Time;durP1;ratioP1;P1;durP2;ratioP2;P2;SDS_P1;SDS_P2;PMS_P1;PMS_P2;Temp;Humidity;BMP_temperature;BMP_pressure;BME280_temperature;BME280_humidity;BME280_pressure;Samples;Min_cycle;Max_cycle;Signal;HPM_P1;HPM_P2
2021/06/23 00:00:44;;;;;;;28.60;17.65;;;11.40;99.90;;;;;;4198656;28;20036;-80
2021/06/23 00:02:44;;;;;;;22.83;16.80;;;11.40;99.90;;;;;;4193308;28;20082;-79
2021/06/23 00:04:46;;;;;;;30.20;16.90;;;11.40;99.90;;;;;;4198338;28;20046;-79
2021/06/23 00:06:47;;;;;;;26.17;17.65;;;11.40;99.90;;;;;;4200004;28;20514;-79
2021/06/23 00:08:47;;;;;;;26.50;17.17;;;11.30;99.90;;;;;;4199923;28;20031;-79
2021/06/23 00:10:50;;;;;;;30.10;18.88;;;11.40;99.90;;;;;;4200006;28;20383;-80
2021/06/23 00:12:54;;;;;;;25.48;18.13;;;11.40;99.90;;;;;;4199245;28;20064;-80
2021/06/23 00:14:54;;;;;;;26.20;17.15;;;11.40;99.90;;;;;;4198090;28;20546;-79
2021/06/23 00:16:55;;;;;;;32.10;19.88;;;11.40;99.90;;;;;;4198951;28;20052;-80
2021/06/23 00:18:58;;;;;;;30.80;17.25;;;11.40;99.90;;;;;;4197240;28;20618;-79
2021/06/23 00:20:58;;;;;;;23.63;16.67;;;11.40;99.90;;;;;;4193120;28;20021;-80
2021/06/23 00:23:00;;;;;;;25.20;17.33;;;11.40;99.90;;;;;;4188173;28;20083;-79
2021/06/23 00:25:03;;;;;;;26.35;16.15;;;11.40;99.90;;;;;;4188158;28;20698;-79
2021/06/23 00:27:05;;;;;;;31.77;17.98;;;11.40;99.90;;;;;;4195410;28;20463;-79
2021/06/23 00:29:07;;;;;;;32.63;17.83;;;11.40;99.90;;;;;;4198958;28;20036;-79
2021/06/23 00:31:08;;;;;;;24.50;17.65;;;11.40;99.90;;;;;;4198900;28;20032;-79
2021/06/23 00:33:16;;;;;;;25.60;17.77;;;11.30;99.90;;;;;;4197520;28;20495;-79
2021/06/23 00:35:18;;;;;;;28.15;17.88;;;11.30;99.90;;;;;;4199020;28;20057;-79
2021/06/23 00:37:19;;;;;;;30.65;19.13;;;11.40;99.90;;;;;;4198066;28;20495;-79
2021/06/23 00:39:19;;;;;;;26.27;17.20;;;11.40;99.90;;;;;;4199334;28;20033;-79
2021/06/23 00:41:21;;;;;;;22.63;16.27;;;11.40;99.90;;;;;;4197965;28;20487;-79
2021/06/23 00:43:23;;;;;;;29.55;18.63;;;11.30;99.90;;;;;;4199482;28;20025;-79
2021/06/23 00:45:26;;;;;;;27.00;18.52;;;11.30;99.90;;;;;;4199334;28;20040;-79
2021/06/23 00:47:29;;;;;;;32.17;18.35;;;11.30;99.90;;;;;;4185977;28;20025;-79
2021/06/23 00:49:31;;;;;;;21.75;16.48;;;11.30;99.90;;;;;;4196856;28;20052;-79
2021/06/23 00:51:36;;;;;;;27.60;17.33;;;11.30;99.90;;;;;;4198893;28;20044;-79
2021/06/23 00:53:36;;;;;;;28.20;17.52;;;11.20;99.90;;;;;;4197584;28;20651;-79
2021/06/23 00:55:37;;;;;;;24.17;17.13;;;11.20;99.90;;;;;;4197389;28;20028;-79
2021/06/23 00:57:40;;;;;;;26.08;17.48;;;11.10;99.90;;;;;;4197889;28;20041;-79
2021/06/23 00:59:41;;;;;;;33.97;17.23;;;11.20;99.90;;;;;;4196771;28;20552;-79
2021/06/23 01:01:43;;;;;;;21.95;15.48;;;11.20;99.90;;;;;;4190000;28;20057;-79
2021/06/23 01:03:44;;;;;;;25.15;16.67;;;11.20;99.90;;;;;;4188114;28;20041;-79
2021/06/23 01:05:45;;;;;;;29.27;16.23;;;11.10;99.90;;;;;;4196637;28;20510;-79
2021/06/23 01:07:48;;;;;;;27.70;16.58;;;11.10;99.90;;;;;;4196581;28;20086;-79
2021/06/23 01:09:54;;;;;;;31.52;16.00;;;11.10;99.90;;;;;;4196748;28;20090;-79
2021/06/23 01:12:15;;;;;;;24.77;16.90;;;11.10;99.90;;;;;;4198194;28;20038;-79
2021/06/23 01:14:18;;;;;;;28.50;16.42;;;11.00;99.90;;;;;;4184983;28;20029;-79
2021/06/23 01:16:20;;;;;;;26.90;16.90;;;10.90;99.90;;;;;;4189650;28;20045;-79
2021/06/23 01:18:23;;;;;;;29.23;17.48;;;10.90;99.90;;;;;;4192221;28;20064;-78
2021/06/23 01:20:24;;;;;;;30.67;16.45;;;11.00;99.90;;;;;;4197593;28;20036;-79
2021/06/23 01:22:25;;;;;;;21.80;16.92;;;11.00;99.90;;;;;;4198070;28;20059;-79
2021/06/23 01:24:26;;;;;;;24.23;17.00;;;11.00;99.90;;;;;;4198388;28;20033;-78
2021/06/23 01:26:27;;;;;;;27.10;16.92;;;11.00;99.90;;;;;;4198934;28;20044;-78
2021/06/23 01:28:28;;;;;;;32.17;17.38;;;11.00;99.90;;;;;;4194237;28;20041;-78
2021/06/23 01:30:29;;;;;;;28.30;17.50;;;11.00;99.90;;;;;;4194941;28;20033;-79
2021/06/23 01:32:31;;;;;;;22.38;16.83;;;11.00;99.90;;;;;;4182875;28;20353;-79
2021/06/23 01:34:32;;;;;;;27.17;16.17;;;11.00;99.90;;;;;;4198194;28;20494;-78
2021/06/23 01:36:33;;;;;;;26.35;17.33;;;10.90;99.90;;;;;;4197608;28;20120;-79
2021/06/23 01:38:34;;;;;;;20.95;16.13;;;10.90;99.90;;;;;;4198231;28;20115;-78
2021/06/23 01:40:35;;;;;;;27.98;17.02;;;10.90;99.90;;;;;;4186239;28;20384;-78
2021/06/23 01:42:36;;;;;;;26.70;17.38;;;10.90;99.90;;;;;;4196299;28;20035;-78
2021/06/23 01:44:36;;;;;;;27.80;17.58;;;10.90;99.90;;;;;;4197148;28;20029;-78
2021/06/23 01:46:37;;;;;;;29.90;17.02;;;10.90;99.90;;;;;;4198063;28;20473;-78
2021/06/23 01:48:38;;;;;;;30.52;18.10;;;10.90;99.90;;;;;;4197236;28;20033;-77
2021/06/23 01:50:38;;;;;;;27.15;17.58;;;10.90;99.90;;;;;;4197449;28;20451;-77
2021/06/23 01:52:40;;;;;;;28.25;18.42;;;10.80;99.90;;;;;;4198663;28;20444;-78
2021/06/23 01:54:42;;;;;;;27.10;18.40;;;10.80;99.90;;;;;;4195979;28;20017;-78
2021/06/23 01:56:43;;;;;;;32.72;19.55;;;10.80;99.90;;;;;;4188503;28;20027;-80
2021/06/23 01:58:44;;;;;;;31.50;18.85;;;10.90;99.90;;;;;;4193791;28;20055;-77
2021/06/23 02:01:07;;;;;;;27.17;18.85;;;10.90;99.90;;;;;;4195853;28;20032;-79
2021/06/23 02:03:24;;;;;;;29.38;16.80;;;10.90;99.90;;;;;;4187543;28;20032;-79
2021/06/23 02:05:42;;;;;;;26.25;17.58;;;10.90;99.90;;;;;;4193584;28;20025;-78
2021/06/23 02:07:54;;;;;;;27.02;17.17;;;11.00;99.90;;;;;;4186690;28;20041;-78
2021/06/23 02:10:13;;;;;;;25.25;18.00;;;11.00;99.90;;;;;;4195474;28;20491;-79
2021/06/23 02:12:29;;;;;;;27.90;19.13;;;11.00;99.90;;;;;;4196474;28;20027;-79
2021/06/23 02:14:37;;;;;;;24.45;17.83;;;11.00;99.90;;;;;;4196788;28;20367;-79
2021/06/23 02:16:41;;;;;;;28.08;19.13;;;11.10;99.90;;;;;;4195857;28;20044;-78
2021/06/23 02:18:41;;;;;;;24.23;18.08;;;11.10;99.90;;;;;;4196872;28;20082;-78
2021/06/23 02:20:43;;;;;;;31.83;18.77;;;11.10;99.90;;;;;;4197255;28;20479;-78
2021/06/23 02:22:44;;;;;;;27.15;18.42;;;11.10;99.90;;;;;;4196542;28;20103;-77
2021/06/23 02:24:48;;;;;;;37.83;18.95;;;11.10;99.90;;;;;;4197273;28;20852;-78
2021/06/23 02:26:48;;;;;;;32.30;18.25;;;11.10;99.90;;;;;;4197118;28;20039;-79
2021/06/23 02:28:49;;;;;;;27.05;17.67;;;11.10;99.90;;;;;;4190957;28;20040;-78
2021/06/23 02:30:51;;;;;;;27.80;17.13;;;11.10;99.90;;;;;;4195615;28;20041;-78
2021/06/23 02:32:54;;;;;;;26.77;18.30;;;11.10;99.90;;;;;;4196514;28;20028;-78
2021/06/23 02:34:58;;;;;;;29.77;17.48;;;11.10;99.90;;;;;;4196708;28;20037;-78
2021/06/23 02:37:01;;;;;;;;;;;11.10;99.90;;;;;;4195751;28;20070;-79
2021/06/23 02:39:03;;;;;;;25.60;15.98;;;11.10;99.90;;;;;;4194360;28;19939;-80
2021/06/23 02:41:04;;;;;;;26.58;18.08;;;11.10;99.90;;;;;;4196637;28;20020;-79
2021/06/23 02:43:06;;;;;;;28.25;18.75;;;11.10;99.90;;;;;;4195475;28;20024;-79
2021/06/23 02:45:07;;;;;;;28.45;18.33;;;11.10;99.90;;;;;;4196371;28;20086;-79
2021/06/23 02:47:09;;;;;;;27.42;18.13;;;11.10;99.90;;;;;;4196839;28;20060;-79
2021/06/23 02:49:10;;;;;;;24.38;16.90;;;11.10;99.90;;;;;;4181051;28;20021;-79
2021/06/23 02:51:17;;;;;;;33.65;19.08;;;11.10;99.90;;;;;;4195342;28;20035;-79
2021/06/23 02:53:18;;;;;;;30.52;18.75;;;11.10;99.90;;;;;;4196289;28;20036;-79
2021/06/23 02:55:19;;;;;;;30.05;17.70;;;11.10;99.90;;;;;;4195011;28;20455;-79
2021/06/23 02:57:21;;;;;;;26.33;16.67;;;11.10;99.90;;;;;;4196367;28;20035;-79
2021/06/23 02:59:24;;;;;;;24.90;18.08;;;11.20;99.90;;;;;;4186646;28;20574;-78
2021/06/23 03:01:24;;;;;;;25.77;18.20;;;11.10;99.90;;;;;;4190726;28;20066;-79
2021/06/23 03:03:25;;;;;;;24.02;17.45;;;11.10;99.90;;;;;;4196344;28;20029;-78
2021/06/23 03:05:27;;;;;;;26.73;18.60;;;11.10;99.90;;;;;;4196461;28;20044;-81
2021/06/23 03:07:27;;;;;;;19.00;16.95;;;11.10;99.90;;;;;;4192319;28;20046;-78
2021/06/23 03:09:28;;;;;;;21.90;16.48;;;11.20;99.90;;;;;;4187737;28;20053;-79
2021/06/23 03:11:40;;;;;;;21.85;16.80;;;11.20;99.90;;;;;;4181666;28;20518;-79
2021/06/23 03:13:49;;;;;;;31.55;16.30;;;11.20;99.90;;;;;;4183964;28;20115;-80
2021/06/23 03:15:49;;;;;;;25.30;15.50;;;11.30;99.90;;;;;;4177653;28;20364;-79
2021/06/23 03:17:50;;;;;;;29.92;17.15;;;11.30;99.90;;;;;;4183180;28;20120;-79
2021/06/23 03:19:51;;;;;;;22.17;16.20;;;11.40;99.90;;;;;;4194156;28;20029;-79
2021/06/23 03:21:53;;;;;;;23.17;16.13;;;11.30;99.90;;;;;;4181787;28;20475;-80
2021/06/23 03:23:54;;;;;;;27.17;17.25;;;11.40;99.90;;;;;;4194776;28;20059;-80
2021/06/23 03:25:55;;;;;;;23.40;15.88;;;11.40;99.90;;;;;;4195039;28;20028;-78
2021/06/23 03:27:58;;;;;;;49.72;18.75;;;11.40;99.90;;;;;;4185478;28;20460;-78
2021/06/23 03:29:59;;;;;;;20.30;16.73;;;11.40;99.90;;;;;;4193582;28;20048;-79
2021/06/23 03:32:02;;;;;;;18.02;15.07;;;11.40;99.90;;;;;;4196106;28;20040;-78
2021/06/23 03:34:03;;;;;;;27.50;16.73;;;11.40;99.90;;;;;;4194750;28;20052;-79
2021/06/23 03:36:05;;;;;;;22.83;16.08;;;11.40;99.90;;;;;;4194546;28;20032;-78
2021/06/23 03:38:06;;;;;;;39.70;17.27;;;11.40;99.90;;;;;;4191220;28;20063;-81
2021/06/23 03:40:07;;;;;;;23.67;16.60;;;11.50;99.90;;;;;;4184876;28;20087;-79
2021/06/23 03:42:08;;;;;;;21.15;15.73;;;11.50;99.90;;;;;;4193025;28;20040;-79
2021/06/23 03:44:09;;;;;;;22.15;15.82;;;11.50;99.90;;;;;;4191850;28;20116;-79
2021/06/23 03:46:09;;;;;;;26.50;15.98;;;11.50;99.90;;;;;;4186463;28;20028;-79
2021/06/23 03:48:10;;;;;;;26.90;16.10;;;11.60;99.90;;;;;;4195763;28;20499;-79
2021/06/23 03:50:12;;;;;;;26.17;15.02;;;11.60;99.90;;;;;;4196141;28;20035;-79
2021/06/23 03:52:12;;;;;;;25.00;15.95;;;11.70;99.90;;;;;;4194652;28;20110;-79
2021/06/23 03:54:13;;;;;;;22.15;14.18;;;11.70;99.90;;;;;;4195671;28;20446;-79
2021/06/23 03:56:14;;;;;;;23.48;15.48;;;11.70;99.90;;;;;;4195618;28;20055;-80
2021/06/23 03:58:14;;;;;;;21.45;15.70;;;11.70;99.90;;;;;;4192122;28;20029;-78
2021/06/23 04:00:16;;;;;;;25.70;15.90;;;11.70;99.90;;;;;;4182795;28;20742;-79
2021/06/23 04:02:17;;;;;;;26.75;15.95;;;11.70;99.90;;;;;;4194064;28;20025;-79
2021/06/23 04:04:18;;;;;;;21.75;14.52;;;11.70;99.90;;;;;;4195831;28;20476;-79
2021/06/23 04:06:19;;;;;;;22.65;14.93;;;11.70;99.90;;;;;;4194377;28;20028;-78
2021/06/23 04:08:21;;;;;;;24.80;15.10;;;11.80;99.90;;;;;;4194442;28;20035;-79
2021/06/23 04:10:22;;;;;;;16.85;14.13;;;11.80;99.90;;;;;;4195631;28;20206;-79
2021/06/23 04:12:24;;;;;;;22.90;14.65;;;11.80;99.90;;;;;;4195890;28;20037;-79
2021/06/23 04:14:27;;;;;;;19.48;13.57;;;11.80;99.90;;;;;;4195833;28;20079;-79
2021/06/23 04:16:28;;;;;;;17.25;12.65;;;11.90;99.90;;;;;;4192907;28;20052;-79
2021/06/23 04:18:29;;;;;;;17.65;13.82;;;11.90;99.90;;;;;;4182868;28;20044;-79
2021/06/23 04:20:29;;;;;;;23.08;13.50;;;12.00;99.90;;;;;;4195391;28;20086;-79
2021/06/23 04:22:30;;;;;;;21.83;13.38;;;12.00;99.90;;;;;;4187219;28;20104;-78
2021/06/23 04:24:31;;;;;;;20.67;13.00;;;12.00;99.90;;;;;;4189227;28;20644;-79
2021/06/23 04:26:33;;;;;;;20.42;14.38;;;12.10;99.90;;;;;;4195987;28;20039;-79
2021/06/23 04:28:34;;;;;;;19.60;13.27;;;12.00;99.90;;;;;;4194315;28;20109;-79
2021/06/23 04:30:34;;;;;;;16.92;12.93;;;12.10;99.90;;;;;;4194058;28;20490;-79
2021/06/23 04:32:35;;;;;;;14.32;12.60;;;12.10;99.90;;;;;;4195682;28;20047;-79
2021/06/23 04:34:36;;;;;;;17.80;11.93;;;12.20;99.90;;;;;;4194427;28;20039;-79
2021/06/23 04:36:36;;;;;;;20.45;13.73;;;12.20;99.90;;;;;;4182661;28;20464;-80
2021/06/23 04:38:37;;;;;;;19.05;13.48;;;12.20;99.90;;;;;;4180514;28;20056;-80
2021/06/23 04:40:40;;;;;;;17.88;12.02;;;12.20;99.90;;;;;;4195791;28;20449;-79
2021/06/23 04:42:41;;;;;;;19.13;12.27;;;12.20;99.90;;;;;;4194019;28;20028;-79
2021/06/23 04:44:42;;;;;;;15.95;12.52;;;12.20;99.90;;;;;;4194915;28;20032;-80
2021/06/23 04:46:42;;;;;;;16.90;11.95;;;12.20;99.90;;;;;;4198737;28;20039;-78
2021/06/23 04:48:43;;;;;;;19.98;12.35;;;12.20;99.90;;;;;;4197508;28;20487;-79
2021/06/23 04:50:44;;;;;;;21.75;12.70;;;12.30;99.90;;;;;;4194814;28;20025;-78
2021/06/23 04:52:44;;;;;;;17.13;11.98;;;12.30;99.90;;;;;;4187304;28;20083;-80
2021/06/23 04:54:45;;;;;;;14.23;11.75;;;12.30;99.90;;;;;;4198327;28;20115;-79
2021/06/23 04:56:46;;;;;;;12.77;10.82;;;12.30;99.90;;;;;;4198911;28;20029;-81
2021/06/23 04:58:47;;;;;;;13.88;10.98;;;12.30;99.90;;;;;;4187400;28;20455;-80
2021/06/23 05:00:48;;;;;;;18.20;11.05;;;12.30;99.90;;;;;;4196352;28;20120;-80
2021/06/23 05:02:50;;;;;;;15.85;10.98;;;12.30;99.90;;;;;;4194146;28;20044;-80
2021/06/23 05:04:50;;;;;;;15.50;10.00;;;12.40;99.90;;;;;;4183696;28;20040;-79
2021/06/23 05:06:51;;;;;;;18.02;9.82;;;12.40;99.90;;;;;;4191312;28;20017;-79
2021/06/23 05:08:51;;;;;;;16.52;9.43;;;12.40;99.90;;;;;;4190113;28;20032;-78
2021/06/23 05:10:54;;;;;;;21.92;10.27;;;12.50;99.90;;;;;;4196151;28;20487;-82
2021/06/23 05:12:55;;;;;;;12.95;9.20;;;12.50;99.90;;;;;;4195907;28;20029;-79
2021/06/23 05:14:58;;;;;;;14.05;8.52;;;12.50;99.90;;;;;;4196326;28;20044;-79
2021/06/23 05:17:00;;;;;;;17.98;9.38;;;12.60;99.90;;;;;;4195686;28;20044;-79
2021/06/23 05:19:01;;;;;;;15.15;9.18;;;12.70;99.90;;;;;;4196865;28;20047;-79
2021/06/23 05:21:04;;;;;;;18.85;9.38;;;12.80;99.90;;;;;;4197295;28;20024;-79
2021/06/23 05:23:04;;;;;;;15.50;8.95;;;12.80;99.90;;;;;;4188726;28;20479;-78
2021/06/23 05:25:05;;;;;;;14.90;8.48;;;13.00;99.90;;;;;;4197109;28;20017;-79
2021/06/23 05:27:08;;;;;;;9.32;7.80;;;13.00;99.90;;;;;;4197424;28;20029;-80
2021/06/23 05:29:16;;;;;;;12.05;8.57;;;13.10;99.90;;;;;;4192354;28;20031;-79
2021/06/23 05:31:17;;;;;;;17.80;8.60;;;13.20;99.90;;;;;;4190894;28;20123;-79
2021/06/23 05:33:18;;;;;;;15.35;8.38;;;13.30;99.90;;;;;;4195619;28;20584;-81
2021/06/23 05:35:20;;;;;;;16.08;8.02;;;13.50;99.90;;;;;;4189745;28;20024;-78
2021/06/23 05:37:20;;;;;;;23.52;12.40;;;13.50;99.90;;;;;;4190768;28;20126;-80
2021/06/23 05:39:21;;;;;;;18.45;13.48;;;13.70;99.90;;;;;;4194617;28;20055;-80
2021/06/23 05:41:24;;;;;;;23.10;15.52;;;13.80;99.90;;;;;;4193637;28;20047;-79
2021/06/23 05:43:26;;;;;;;14.68;8.43;;;14.00;99.90;;;;;;4196948;28;20039;-79
2021/06/23 05:45:26;;;;;;;15.48;9.23;;;14.10;99.90;;;;;;4178494;28;20500;-81
2021/06/23 05:47:28;;;;;;;12.20;7.28;;;14.20;99.90;;;;;;4195338;28;20090;-79
2021/06/23 05:49:32;;;;;;;14.32;7.38;;;14.30;99.90;;;;;;4192251;28;20029;-79
2021/06/23 05:51:33;;;;;;;11.43;6.72;;;14.40;99.90;;;;;;4195333;28;20028;-78
2021/06/23 05:53:36;;;;;;;15.90;7.78;;;14.30;99.90;;;;;;4196926;28;20036;-78
2021/06/23 05:55:42;;;;;;;15.80;7.25;;;14.30;99.90;;;;;;4192520;28;20033;-80
2021/06/23 05:57:44;;;;;;;13.80;6.30;;;14.40;99.90;;;;;;4196306;28;20029;-80
2021/06/23 05:59:55;;;;;;;14.60;7.18;;;14.50;99.90;;;;;;4188048;28;20190;-81
2021/06/23 06:01:57;;;;;;;14.88;7.53;;;14.70;99.90;;;;;;4195300;28;20120;-81
2021/06/23 06:03:58;;;;;;;8.85;6.57;;;14.90;99.90;;;;;;4197688;28;20391;-80
2021/06/23 06:05:59;;;;;;;10.38;6.53;;;14.90;99.90;;;;;;4196557;28;20035;-81
2021/06/23 06:08:00;;;;;;;11.80;7.72;;;14.80;99.90;;;;;;4196907;28;20123;-81
2021/06/23 06:10:16;;;;;;;12.77;6.55;;;15.00;99.90;;;;;;4193325;28;20021;-83
2021/06/23 06:12:16;;;;;;;12.90;6.28;;;15.10;99.90;;;;;;4187915;28;20029;-80
2021/06/23 06:14:17;;;;;;;13.65;7.50;;;15.30;99.90;;;;;;4188567;28;20507;-81
2021/06/23 06:16:17;;;;;;;10.43;6.47;;;15.40;99.90;;;;;;4187541;28;20568;-80
2021/06/23 06:18:24;;;;;;;10.85;6.45;;;15.50;99.90;;;;;;4195539;28;20388;-82
2021/06/23 06:20:24;;;;;;;11.02;5.45;;;15.50;99.90;;;;;;4190758;28;20050;-81
2021/06/23 06:22:27;;;;;;;7.43;5.32;;;15.50;99.90;;;;;;4197300;28;20115;-82
2021/06/23 06:24:39;;;;;;;10.13;5.82;;;15.60;99.90;;;;;;4195986;28;20067;-82
2021/06/23 06:26:45;;;;;;;10.02;5.22;;;15.70;99.90;;;;;;4193969;28;20060;-81
2021/06/23 06:28:47;;;;;;;14.88;5.70;;;15.70;99.90;;;;;;4187909;28;20132;-82
2021/06/23 06:30:48;;;;;;;12.48;4.90;;;15.70;99.90;;;;;;4192600;28;20555;-81
2021/06/23 06:32:49;;;;;;;11.63;4.30;;;15.60;99.90;;;;;;4189174;28;20036;-80
2021/06/23 06:34:50;;;;;;;12.20;4.88;;;15.60;99.90;;;;;;4189974;28;20170;-80
2021/06/23 06:36:51;;;;;;;16.58;5.78;;;15.50;99.90;;;;;;4195671;28;20033;-80
2021/06/23 06:38:52;;;;;;;11.68;4.18;;;15.70;99.90;;;;;;4193718;28;20075;-80
2021/06/23 06:40:53;;;;;;;8.80;4.40;;;15.80;99.90;;;;;;4193766;28;20025;-81
2021/06/23 06:42:54;;;;;;;11.55;4.82;;;16.00;99.90;;;;;;4192936;28;20071;-80
2021/06/23 06:44:55;;;;;;;9.18;4.20;;;16.30;99.90;;;;;;4184286;28;20064;-81
2021/06/23 06:46:57;;;;;;;10.38;4.60;;;16.50;99.90;;;;;;4194479;28;20049;-80
2021/06/23 06:48:57;;;;;;;8.75;3.83;;;16.70;99.90;;;;;;4195649;28;20124;-80
2021/06/23 06:51:00;;;;;;;12.77;4.10;;;16.90;99.90;;;;;;4186060;28;20043;-80
2021/06/23 06:53:00;;;;;;;13.38;4.90;;;17.00;99.90;;;;;;4187875;28;20514;-80
2021/06/23 06:55:04;;;;;;;10.45;4.95;;;17.20;99.90;;;;;;4196368;28;20074;-80
2021/06/23 06:57:07;;;;;;;10.82;5.03;;;17.20;99.90;;;;;;4192155;28;20432;-80
2021/06/23 06:59:08;;;;;;;13.18;4.72;;;17.20;99.90;;;;;;4190504;28;20082;-80
2021/06/23 07:01:12;;;;;;;10.25;4.82;;;17.50;99.90;;;;;;4196354;28;20025;-80
2021/06/23 07:03:13;;;;;;;9.23;3.78;;;17.40;99.90;;;;;;4194616;28;20036;-79
2021/06/23 07:05:14;;;;;;;6.78;3.33;;;17.40;99.90;;;;;;4195333;28;20024;-78
2021/06/23 07:07:15;;;;;;;9.95;4.45;;;17.50;99.90;;;;;;4190915;28;20019;-79
2021/06/23 07:09:16;;;;;;;8.07;3.00;;;17.60;99.90;;;;;;4196064;28;20060;-79
2021/06/23 07:11:24;;;;;;;9.45;3.33;;;17.70;99.90;;;;;;4194496;28;20055;-81
2021/06/23 07:13:24;;;;;;;5.65;3.22;;;17.80;99.90;;;;;;4201715;28;20029;-79
2021/06/23 07:15:28;;;;;;;9.48;3.35;;;17.60;99.90;;;;;;4191541;28;20487;-79
2021/06/23 07:17:29;;;;;;;17.48;5.72;;;17.80;99.90;;;;;;4191767;28;20041;-79
2021/06/23 07:19:31;;;;;;;9.38;4.28;;;17.90;99.90;;;;;;4196706;28;20052;-79
2021/06/23 07:21:32;;;;;;;10.70;4.00;;;17.50;99.90;;;;;;4185620;28;20204;-78
2021/06/23 07:23:32;;;;;;;9.93;4.55;;;17.40;99.90;;;;;;4196785;28;20491;-79
2021/06/23 07:25:33;;;;;;;8.23;3.30;;;17.40;99.90;;;;;;4179765;28;20033;-78
2021/06/23 07:27:34;;;;;;;11.48;4.03;;;17.20;99.90;;;;;;4186736;28;20105;-80
2021/06/23 07:29:34;;;;;;;6.32;3.42;;;17.10;99.90;;;;;;4195865;28;20045;-79
2021/06/23 07:33:38;;;;;;;10.43;3.95;;;17.20;99.90;;;;;;4194821;28;20060;-79
2021/06/23 07:37:58;;;;;;;6.95;3.53;;;17.30;99.90;;;;;;4195453;28;20044;-78
2021/06/23 07:40:00;;;;;;;10.73;3.97;;;17.30;99.90;;;;;;4189697;28;20407;-80
2021/06/23 07:42:01;;;;;;;9.77;4.03;;;17.50;99.90;;;;;;4192948;28;20498;-80
2021/06/23 07:44:04;;;;;;;10.82;4.18;;;17.50;99.90;;;;;;4193413;28;20021;-80
2021/06/23 07:46:11;;;;;;;8.17;3.40;;;17.60;99.90;;;;;;4189779;28;20044;-79
2021/06/23 07:48:14;;;;;;;9.70;4.10;;;17.60;99.90;;;;;;4194444;28;20483;-79
2021/06/23 07:50:15;;;;;;;12.93;4.18;;;17.70;99.90;;;;;;4195945;28;20029;-78
2021/06/23 07:54:33;;;;;;;8.55;3.65;;;17.50;99.90;;;;;;4196195;28;20028;-79
2021/06/23 08:10:14;;;;;;;8.20;3.40;;;18.10;99.90;;;;;;4184037;28;20054;-78
2021/06/23 08:12:17;;;;;;;6.90;3.67;;;18.10;99.90;;;;;;4193860;28;20541;-79
2021/06/23 08:14:19;;;;;;;8.57;4.07;;;18.20;99.90;;;;;;4193947;28;20032;-79
2021/06/23 08:16:20;;;;;;;10.90;3.63;;;18.30;99.90;;;;;;4195676;28;20350;-79
2021/06/23 08:18:20;;;;;;;8.45;4.53;;;18.20;99.90;;;;;;4196373;28;20028;-78
2021/06/23 08:20:24;;;;;;;8.52;4.00;;;18.00;99.90;;;;;;4197153;28;20068;-78
2021/06/23 08:22:25;;;;;;;11.00;3.65;;;18.20;99.90;;;;;;4169716;28;20037;-79
2021/06/23 08:24:26;;;;;;;7.70;3.10;;;18.40;99.90;;;;;;4199910;28;20039;-78
2021/06/23 08:26:27;;;;;;;11.05;3.80;;;18.40;99.90;;;;;;4199659;28;20039;-78
2021/06/23 08:28:28;;;;;;;9.10;3.28;;;18.50;99.90;;;;;;4192515;28;20061;-79
2021/06/23 08:30:31;;;;;;;7.95;4.10;;;18.60;99.90;;;;;;4197817;28;20039;-78
2021/06/23 08:32:32;;;;;;;14.23;4.07;;;19.10;99.90;;;;;;4196964;28;20054;-78
2021/06/23 08:34:33;;;;;;;12.35;4.45;;;19.40;99.90;;;;;;4188505;28;20456;-78
2021/06/23 08:36:34;;;;;;;9.07;4.30;;;19.50;99.90;;;;;;4199565;28;20086;-78
2021/06/23 08:38:36;;;;;;;11.77;4.28;;;19.50;99.90;;;;;;4197516;28;20043;-78
2021/06/23 08:40:36;;;;;;;11.80;4.53;;;19.50;99.90;;;;;;4197585;28;20028;-78
2021/06/23 08:42:39;;;;;;;8.15;3.45;;;19.50;99.90;;;;;;4198049;28;20384;-78
2021/06/23 08:44:39;;;;;;;17.13;5.50;;;19.20;99.90;;;;;;4198503;28;20061;-78
2021/06/23 08:46:44;;;;;;;12.00;4.75;;;19.20;99.90;;;;;;4198148;28;20384;-78
2021/06/23 08:48:45;;;;;;;8.40;4.00;;;19.20;99.90;;;;;;4199892;28;20043;-78
2021/06/23 08:50:46;;;;;;;13.48;5.00;;;19.30;99.90;;;;;;4185489;28;20041;-77
2021/06/23 08:52:47;;;;;;;7.32;3.90;;;19.70;99.90;;;;;;4196462;28;20047;-78
2021/06/23 08:54:53;;;;;;;11.90;4.00;;;19.80;99.90;;;;;;4199232;28;20131;-77
2021/06/23 08:56:54;;;;;;;9.65;3.28;;;20.00;99.90;;;;;;4199325;28;20460;-77
2021/06/23 08:58:55;;;;;;;7.38;3.30;;;20.00;99.90;;;;;;4186663;28;20040;-78
2021/06/23 09:00:56;;;;;;;9.82;3.55;;;19.90;99.90;;;;;;4187054;28;20073;-79
2021/06/23 09:03:08;;;;;;;10.02;4.40;;;19.70;99.90;;;;;;4196551;28;20025;-77
2021/06/23 09:05:14;;;;;;;5.18;3.40;;;19.80;99.90;;;;;;4197652;28;20074;-77
2021/06/23 09:07:14;;;;;;;10.75;3.85;;;20.10;99.90;;;;;;4193892;28;20040;-77
2021/06/23 09:09:34;;;;;;;11.57;5.07;;;20.20;99.90;;;;;;4197244;28;20036;-77
2021/06/23 09:11:40;;;;;;;8.27;4.38;;;20.30;99.90;;;;;;4197901;28;20055;-77
2021/06/23 09:13:41;;;;;;;10.23;4.85;;;20.30;99.90;;;;;;4194996;28;20533;-75
2021/06/23 09:15:47;;;;;;;7.35;3.60;;;19.80;99.90;;;;;;4196591;28;20055;-77
2021/06/23 09:17:48;;;;;;;7.82;4.00;;;19.90;99.90;;;;;;4196548;28;20392;-76
2021/06/23 09:19:52;;;;;;;6.55;3.55;;;20.20;99.90;;;;;;4197127;28;20035;-76
2021/06/23 09:21:53;;;;;;;10.88;3.90;;;20.20;99.90;;;;;;4196260;28;20036;-76
2021/06/23 09:23:58;;;;;;;9.23;3.80;;;20.60;99.90;;;;;;4198052;28;20460;-76
2021/06/23 09:26:08;;;;;;;9.73;4.78;;;20.40;99.90;;;;;;4196008;28;20069;-76
2021/06/23 09:28:17;;;;;;;9.82;3.65;;;20.50;99.90;;;;;;4193550;28;20549;-78
2021/06/23 09:30:24;;;;;;;10.45;3.40;;;20.50;99.90;;;;;;4190850;28;20166;-78
2021/06/23 09:32:25;;;;;;;10.55;3.65;;;20.90;99.90;;;;;;4197818;28;20033;-76
2021/06/23 09:34:52;;;;;;;15.30;4.45;;;21.30;99.90;;;;;;4198213;28;20043;-79
2021/06/23 09:36:54;;;;;;;12.05;4.07;;;21.00;99.90;;;;;;4194981;28;20454;-77
2021/06/23 09:38:54;;;;;;;9.82;4.07;;;20.70;99.90;;;;;;4197127;28;20052;-74
2021/06/23 09:40:55;;;;;;;8.95;4.10;;;20.60;99.90;;;;;;4197756;28;20039;-75
2021/06/23 09:43:02;;;;;;;6.95;3.75;;;20.50;99.90;;;;;;4196190;28;20037;-79
2021/06/23 09:45:07;;;;;;;8.68;4.10;;;20.80;99.90;;;;;;4192691;28;20024;-77
2021/06/23 09:47:08;;;;;;;10.52;4.07;;;20.90;99.90;;;;;;4196617;28;20469;-79
2021/06/23 09:49:17;;;;;;;11.02;4.32;;;21.30;99.90;;;;;;4197104;28;20025;-78
2021/06/23 09:51:20;;;;;;;9.88;4.40;;;21.50;99.90;;;;;;4197270;28;20028;-77
2021/06/23 09:53:21;;;;;;;13.95;5.18;;;21.80;99.90;;;;;;4193928;28;20043;-75
2021/06/23 09:55:42;;;;;;;6.30;3.78;;;21.90;99.90;;;;;;4197577;28;20058;-75
2021/06/23 09:58:09;;;;;;;7.72;3.80;;;21.80;99.90;;;;;;4195613;28;20024;-77
2021/06/23 10:00:12;;;;;;;11.23;4.60;;;21.80;99.90;;;;;;4196064;28;20033;-77
2021/06/23 10:02:28;;;;;;;6.47;3.90;;;21.80;99.90;;;;;;4196054;28;20028;-76
2021/06/23 10:04:36;;;;;;;16.80;5.25;;;21.50;99.90;;;;;;4195971;28;20032;-76
2021/06/23 10:06:42;;;;;;;8.43;4.50;;;21.10;99.90;;;;;;4191888;28;20037;-80
2021/06/23 10:08:43;;;;;;;8.68;3.50;;;20.80;99.90;;;;;;4196923;28;20344;-77
2021/06/23 10:10:44;;;;;;;9.68;4.03;;;20.70;99.90;;;;;;4184257;28;20070;-77
2021/06/23 10:12:47;;;;;;;10.50;3.80;;;21.00;99.90;;;;;;4194363;28;20028;-77
2021/06/23 10:14:48;;;;;;;8.05;3.80;;;21.30;99.90;;;;;;4180276;28;20033;-77
2021/06/23 10:16:50;;;;;;;9.35;3.80;;;21.50;99.90;;;;;;4187019;28;20043;-75
2021/06/23 10:18:53;;;;;;;5.78;4.75;;;21.40;99.90;;;;;;4196797;28;20028;-75
2021/06/23 10:20:54;;;;;;;12.25;4.15;;;22.00;99.90;;;;;;4192959;28;20073;-76
2021/06/23 10:23:04;;;;;;;10.57;4.65;;;21.60;99.90;;;;;;4185211;28;20045;-77
2021/06/23 10:25:08;;;;;;;9.43;4.30;;;21.60;99.90;;;;;;4194782;28;20086;-77
2021/06/23 10:27:11;;;;;;;11.35;4.97;;;21.80;99.90;;;;;;4197349;28;20045;-76
2021/06/23 10:29:13;;;;;;;;;;;21.40;99.90;;;;;;4192280;28;20112;-77
2021/06/23 10:31:15;;;;;;;7.43;4.10;;;21.30;99.90;;;;;;4197240;28;19957;-76
2021/06/23 10:33:17;;;;;;;9.45;5.38;;;20.90;99.90;;;;;;4197498;28;20103;-76
2021/06/23 10:35:18;;;;;;;10.20;4.32;;;21.00;99.90;;;;;;4196580;28;20031;-77
2021/06/23 10:37:22;;;;;;;10.23;4.65;;;21.10;99.90;;;;;;4196761;28;20029;-74
2021/06/23 10:39:27;;;;;;;10.52;4.65;;;21.10;99.90;;;;;;4195496;28;20453;-78
2021/06/23 10:41:28;;;;;;;11.40;4.72;;;20.90;99.90;;;;;;4197213;28;20040;-77
2021/06/23 10:43:29;;;;;;;11.55;4.57;;;20.90;99.90;;;;;;4194910;28;20112;-78
2021/06/23 10:45:44;;;;;;;9.65;4.53;;;20.70;99.90;;;;;;4195487;28;20066;-77
2021/06/23 10:47:47;;;;;;;10.55;4.00;;;20.90;99.90;;;;;;4197017;28;20108;-78
2021/06/23 10:49:50;;;;;;;13.90;4.80;;;21.20;99.90;;;;;;4197003;28;20086;-78